createdAt,value
2023-04-19T00:00:14.727Z,102373.53
2023-04-19T00:05:16.565Z,102365.84
2023-04-19T00:10:18.451Z,102359.72
2023-04-19T00:15:20.350Z,102365.50
2023-04-19T00:20:22.360Z,102361.31
2023-04-19T00:25:24.383Z,102358.34
2023-04-19T00:30:26.170Z,102354.94
2023-04-19T00:35:28.118Z,102362.84
2023-04-19T00:40:31.298Z,102358.16
2023-04-19T00:45:36.482Z,102355.66
2023-04-19T00:50:38.670Z,102357.81
2023-04-19T00:55:40.596Z,102344.75
2023-04-19T01:00:42.583Z,102351.25
2023-04-19T01:05:44.360Z,102348.19
2023-04-19T01:10:46.096Z,102353.75
2023-04-19T01:15:47.898Z,102355.91
2023-04-19T01:20:49.754Z,102346.59
2023-04-19T01:25:51.570Z,102355.56
2023-04-19T01:30:54.101Z,102350.84
2023-04-19T01:35:55.942Z,102352.28
2023-04-19T01:40:57.783Z,102354.81
2023-04-19T01:45:59.516Z,102343.09
2023-04-19T01:51:01.271Z,102341.00
2023-04-19T01:56:03.072Z,102341.81
2023-04-19T02:01:04.937Z,102339.31
2023-04-19T02:06:14.395Z,102336.16
2023-04-19T02:11:16.147Z,102330.84
2023-04-19T02:16:17.991Z,102329.44
2023-04-19T02:21:19.785Z,102325.91
2023-04-19T02:26:22.048Z,102334.72
2023-04-19T02:31:23.892Z,102315.53
2023-04-19T02:36:26.517Z,102316.47
2023-04-19T02:41:28.230Z,102312.72
2023-04-19T02:46:30.130Z,102304.81
2023-04-19T02:51:32.099Z,102301.25
2023-04-19T02:56:33.856Z,102307.63
2023-04-19T03:01:35.690Z,102299.72
2023-04-19T03:06:37.752Z,102287.47
2023-04-19T03:11:39.609Z,102288.03
2023-04-19T03:16:41.677Z,102276.59
2023-04-19T03:21:43.473Z,102268.34
2023-04-19T03:26:45.296Z,102269.63
2023-04-19T03:31:47.841Z,102265.63
2023-04-19T03:36:49.725Z,102259.25
2023-04-19T03:41:51.577Z,102260.44
2023-04-19T03:46:53.361Z,102255.34
2023-04-19T03:51:55.317Z,102256.03
2023-04-19T03:56:57.128Z,102261.78
2023-04-19T04:01:58.993Z,102255.38
2023-04-19T04:07:01.296Z,102256.91
2023-04-19T04:12:03.175Z,102255.84
2023-04-19T04:17:04.918Z,102251.59
2023-04-19T04:22:07.102Z,102244.91
2023-04-19T04:27:11.821Z,102242.31
2023-04-19T04:32:14.568Z,102249.13
2023-04-19T04:37:17.921Z,102242.19
2023-04-19T04:42:21.563Z,102230.91
2023-04-19T04:47:24.258Z,102220.09
2023-04-19T04:52:26.110Z,102225.06
2023-04-19T04:57:27.890Z,102227.91
2023-04-19T05:02:29.789Z,102225.22
2023-04-19T05:07:31.601Z,102215.22
2023-04-19T05:12:34.173Z,102218.16
2023-04-19T05:17:36.019Z,102205.69
2023-04-19T05:22:38.390Z,102208.06
2023-04-19T05:27:40.184Z,102204.88
2023-04-19T05:32:42.333Z,102202.50
2023-04-19T05:37:44.151Z,102195.34
2023-04-19T05:42:45.973Z,102193.56
2023-04-19T05:47:47.834Z,102190.09
2023-04-19T05:52:49.684Z,102184.22
2023-04-19T05:57:51.695Z,102184.63
2023-04-19T06:02:53.595Z,102180.06
2023-04-19T06:13:01.222Z,102190.66
2023-04-19T06:18:03.040Z,102183.00
2023-04-19T06:23:06.465Z,102178.88
2023-04-19T06:28:08.389Z,102174.66
2023-04-19T06:33:10.186Z,102184.81
2023-04-19T06:38:12.011Z,102172.06
2023-04-19T06:43:14.646Z,102170.81
2023-04-19T06:48:16.384Z,102170.72
2023-04-19T06:53:18.128Z,102159.94
2023-04-19T06:58:20.133Z,102148.72
2023-04-19T07:03:22.627Z,102142.28
2023-04-19T07:08:32.117Z,102134.88
2023-04-19T07:13:37.059Z,102121.75
2023-04-19T07:18:38.886Z,102108.13
2023-04-19T07:23:41.451Z,102095.38
2023-04-19T07:28:43.309Z,102094.25
2023-04-19T07:33:45.950Z,102101.97
2023-04-19T07:38:47.902Z,102089.06
2023-04-19T07:43:49.688Z,102083.00
2023-04-19T07:48:51.677Z,102069.59
2023-04-19T07:53:54.082Z,102061.72
2023-04-19T07:59:06.759Z,102054.41
2023-04-19T08:04:10.765Z,102043.63
2023-04-19T08:09:12.785Z,102044.13
2023-04-19T08:14:28.471Z,102033.41
2023-04-19T08:19:37.195Z,102034.06
2023-04-19T08:24:38.963Z,102031.47
2023-04-19T08:29:40.734Z,102023.47
2023-04-19T08:34:42.559Z,102017.16
2023-04-19T08:39:44.315Z,102018.78
2023-04-19T08:50:08.618Z,102004.66
2023-04-19T08:55:18.888Z,102005.06
2023-04-19T09:00:21.839Z,102005.63
2023-04-19T09:05:23.974Z,102008.31
2023-04-19T09:10:26.300Z,101989.16
2023-04-19T09:15:43.904Z,101977.59
2023-04-19T09:20:46.805Z,101974.16
2023-04-19T09:31:30.284Z,101963.09
2023-04-19T09:36:35.528Z,101957.47
2023-04-19T09:41:53.437Z,101941.66
2023-04-19T09:46:55.696Z,101936.78
2023-04-19T09:51:58.162Z,101936.22
2023-04-19T09:57:02.698Z,101932.81
2023-04-19T10:02:06.531Z,101925.41
2023-04-19T10:07:29.534Z,101932.50
2023-04-19T10:17:38.183Z,101910.22
2023-04-19T10:22:40.326Z,101903.34
2023-04-19T10:27:46.726Z,101897.56
2023-04-19T10:33:02.822Z,101886.41
2023-04-19T10:38:10.148Z,101902.25
2023-04-19T10:43:17.666Z,101895.22
2023-04-19T10:49:00.275Z,101874.72
2023-04-19T10:54:27.199Z,101888.31
2023-04-19T10:59:44.296Z,101890.97
2023-04-19T11:04:48.960Z,101884.66
2023-04-19T11:09:52.575Z,101880.38
2023-04-19T11:14:59.833Z,101873.25
2023-04-19T11:20:11.719Z,101862.47
2023-04-19T11:25:17.277Z,101869.66
2023-04-19T11:30:30.345Z,101866.09
2023-04-19T11:35:32.212Z,101855.25
2023-04-19T11:40:34.120Z,101859.91
2023-04-19T11:45:40.016Z,101854.13
2023-04-19T11:50:44.838Z,101858.22
2023-04-19T11:55:57.607Z,101859.63
2023-04-19T12:01:16.448Z,101843.94
2023-04-19T12:06:28.808Z,101846.31
2023-04-19T12:11:49.947Z,101840.78
2023-04-19T12:17:14.673Z,101832.28
2023-04-19T12:22:20.635Z,101825.53
2023-04-19T12:27:22.461Z,101808.47
2023-04-19T12:32:24.334Z,101798.50
2023-04-19T12:37:26.338Z,101800.78
2023-04-19T12:42:28.094Z,101801.28
2023-04-19T12:47:36.692Z,101785.13
2023-04-19T12:52:38.576Z,101790.63
2023-04-19T12:57:40.487Z,101780.56
2023-04-19T13:02:42.473Z,101763.84
2023-04-19T13:07:44.436Z,101747.78
2023-04-19T13:12:46.192Z,101740.03
2023-04-19T13:17:48.024Z,101731.31
2023-04-19T13:22:49.980Z,101723.53
2023-04-19T13:27:51.788Z,101713.75
2023-04-19T13:32:53.834Z,101707.50
2023-04-19T13:37:56.420Z,101707.50
2023-04-19T13:42:58.326Z,101708.31
2023-04-19T13:48:00.192Z,101706.53
2023-04-19T13:53:02.089Z,101702.69
2023-04-19T13:58:03.979Z,101701.53
2023-04-19T14:03:05.918Z,101711.31
2023-04-19T14:08:07.816Z,101716.06
2023-04-19T14:13:09.673Z,101692.50
2023-04-19T14:18:11.658Z,101693.50
2023-04-19T14:23:13.497Z,101686.34
2023-04-19T14:28:15.319Z,101680.59
2023-04-19T14:33:17.199Z,101676.00
2023-04-19T14:38:19.020Z,101676.63
2023-04-19T14:43:20.874Z,101671.50
2023-04-19T14:48:22.816Z,101673.66
2023-04-19T14:53:24.585Z,101667.31
2023-04-19T14:58:26.342Z,101664.97
2023-04-19T15:03:28.228Z,101674.13
2023-04-19T15:08:31.028Z,101681.38
2023-04-19T15:13:33.886Z,101688.31
2023-04-19T15:18:36.529Z,101702.56
2023-04-19T15:23:38.424Z,101725.13
2023-04-19T15:28:40.692Z,101750.78
2023-04-19T15:33:42.547Z,101755.38
2023-04-19T15:38:44.371Z,101755.56
2023-04-19T15:43:46.363Z,101761.44
2023-04-19T15:48:48.517Z,101762.75
2023-04-19T15:53:50.551Z,101759.97
2023-04-19T15:58:52.474Z,101754.03
2023-04-19T16:03:54.369Z,101740.94
2023-04-19T16:08:56.227Z,101738.34
2023-04-19T16:13:57.974Z,101716.00
2023-04-19T16:19:00.420Z,101713.13
2023-04-19T16:24:02.167Z,101703.16
2023-04-19T16:29:04.003Z,101709.34
2023-04-19T16:34:05.886Z,101696.97
2023-04-19T16:39:07.634Z,101687.00
2023-04-19T16:44:09.448Z,101687.97
2023-04-19T16:49:11.960Z,101687.31
2023-04-19T16:54:13.739Z,101686.59
2023-04-19T16:59:15.811Z,101674.69
2023-04-19T17:04:18.123Z,101676.91
2023-04-19T17:09:20.180Z,101677.66
2023-04-19T17:14:22.638Z,101677.78
2023-04-19T17:19:27.677Z,101676.56
2023-04-19T17:24:29.431Z,101675.13
2023-04-19T17:29:31.217Z,101665.25
2023-04-19T17:34:36.176Z,101668.03
2023-04-19T17:39:38.690Z,101673.41
2023-04-19T17:44:40.489Z,101671.94
2023-04-19T17:49:46.115Z,101680.34
2023-04-19T17:54:48.461Z,101673.56
2023-04-19T17:59:50.439Z,101688.84
2023-04-19T18:04:52.588Z,101684.78
2023-04-19T18:09:54.403Z,101683.03
2023-04-19T18:14:56.246Z,101686.47
2023-04-19T18:19:58.135Z,101685.09
2023-04-19T18:25:00.026Z,101689.03
2023-04-19T18:30:03.986Z,101690.94
2023-04-19T18:35:09.853Z,101689.72
2023-04-19T18:40:12.560Z,101688.59
2023-04-19T18:45:14.560Z,101691.09
2023-04-19T18:50:19.001Z,101695.03
2023-04-19T18:55:21.234Z,101697.63
2023-04-19T19:00:23.367Z,101694.34
2023-04-19T19:05:25.557Z,101706.38
2023-04-19T19:15:37.149Z,101696.13
2023-04-19T19:20:38.981Z,101709.63
2023-04-19T19:25:43.469Z,101703.47
2023-04-19T19:30:46.108Z,101707.03
2023-04-19T19:35:48.021Z,101709.13
2023-04-19T19:45:54.589Z,101701.59
2023-04-19T19:51:24.867Z,101713.03
2023-04-19T19:56:22.827Z,101720.19
2023-04-19T20:01:27.148Z,101731.78
2023-04-19T20:11:37.543Z,101730.56
2023-04-19T20:16:39.571Z,101725.66
2023-04-19T20:21:41.495Z,101732.50
2023-04-19T20:26:43.281Z,101735.25
2023-04-19T20:31:45.122Z,101727.00
2023-04-19T20:36:47.010Z,101726.06
2023-04-19T20:41:51.226Z,101724.41
2023-04-19T20:46:53.079Z,101722.78
2023-04-19T20:51:54.872Z,101721.56
2023-04-19T20:57:01.969Z,101726.06
2023-04-19T21:02:04.081Z,101726.19
2023-04-19T21:07:06.048Z,101720.88
2023-04-19T21:12:07.891Z,101715.38
2023-04-19T21:17:09.707Z,101721.13
2023-04-19T21:22:11.589Z,101730.00
2023-04-19T21:27:13.370Z,101732.75
2023-04-19T21:32:15.184Z,101735.34
2023-04-19T21:37:18.426Z,101737.41
2023-04-19T21:42:20.792Z,101735.75
2023-04-19T21:47:22.609Z,101734.13
2023-04-19T21:52:24.486Z,101735.34
2023-04-19T21:57:27.015Z,101733.72
2023-04-19T22:02:29.026Z,101737.84
2023-04-19T22:07:31.837Z,101741.38
2023-04-19T22:12:34.053Z,101741.50
2023-04-19T22:17:37.106Z,101739.63
2023-04-19T22:22:40.692Z,101745.63
2023-04-19T22:27:43.336Z,101739.19
2023-04-19T22:32:45.213Z,101720.72
2023-04-19T22:37:46.949Z,101726.34
2023-04-19T22:42:48.745Z,101726.34
2023-04-19T22:47:51.041Z,101729.59
2023-04-19T22:52:55.711Z,101724.56
2023-04-19T22:57:57.636Z,101723.72
2023-04-19T23:02:59.496Z,101714.44
2023-04-19T23:08:04.117Z,101719.78
2023-04-19T23:13:06.781Z,101723.19
2023-04-19T23:18:09.618Z,101723.19
2023-04-19T23:23:11.641Z,101713.59
2023-04-19T23:28:13.600Z,101708.00
2023-04-19T23:33:15.613Z,101708.97
2023-04-19T23:38:17.710Z,101700.38
2023-04-19T23:43:19.540Z,101701.03
2023-04-19T23:48:21.324Z,101702.00
2023-04-19T23:53:23.142Z,101688.34
2023-04-19T23:58:25.051Z,101689.31
